Weather reports worldwide

Advertisment
Fair Isle, United Kingdom (3008): temperature: 17.04.2018 00:00:00 - 23.04.2018 00:00:00 (BST)Fair Isle, United Kingdom (3008): temperature -20cm & temperature -100cm: 17.04.2018 00:00:00 - 23.04.2018 00:00:00 (BST)Fair Isle, United Kingdom (3008): wind speed & gusts: 17.04.2018 00:00:00 - 23.04.2018 00:00:00 (BST)Fair Isle, United Kingdom (3008): wind direction: 17.04.2018 00:00:00 - 23.04.2018 00:00:00 (BST)Fair Isle, United Kingdom (3008): reduced air pressure: 17.04.2018 00:00:00 - 23.04.2018 00:00:00 (BST)Fair Isle, United Kingdom (3008): visibility: 17.04.2018 00:00:00 - 23.04.2018 00:00:00 (BST)Fair Isle, United Kingdom (3008): precipitation: 17.04.2018 00:00:00 - 23.04.2018 00:00:00 (BST)
Date & Time tt [°C] tt -20cm [°C] tt -100cm [°C] ff [km/h] ff [kn] fx [km/h] fx [kn] dd ppp [hPa] vv [km] rr [mm]
23.04.2018 00:00:00 6,6 - - 11 6 - - SSW 998,3 20 0,0
22.04.2018 23:00:00 6,6 - - 15 8 - - SW 998,5 18 0,0
22.04.2018 22:00:00 6,8 - - 24 13 - - WSW 998,3 26 0,0
22.04.2018 21:00:00 7,0 - - 21 11 - - SW 998,2 16 0,0
22.04.2018 20:00:00 7,0 - - 11 6 - - SSW 998,2 6 0,6
22.04.2018 19:00:00 7,3 - - 11 6 - - SW 998,1 6 0,0
22.04.2018 18:00:00 8,2 - - 16 9 - - WNW 997,5 30 0,0
22.04.2018 17:00:00 7,8 - - 21 11 - - WNW 997,8 25 0,0
22.04.2018 16:00:00 7,2 - - 15 8 - - SW 998,4 1,1 0,0
22.04.2018 15:00:00 7,7 - - 21 11 - - WSW 998,7 0,2 0,0
22.04.2018 14:00:00 7,6 - - 22 12 - - SSE 999,0 0,8 0,0
22.04.2018 13:00:00 7,4 - - 15 8 - - SSE 999,6 0,8 0,0
22.04.2018 12:00:00 7,5 - - 21 11 - - SSE 1000,5 2,7 0,0
22.04.2018 11:00:00 7,5 - - 24 13 - - SSE 1001,1 1,2 0,0
22.04.2018 10:00:00 7,6 7,7 6,5 26 14 - - SSE 1001,7 1,0 0,0
22.04.2018 09:00:00 7,3 - - 28 15 - - SE 1002,0 4,6 0,0
22.04.2018 08:00:00 7,2 - - 24 13 48 26 SE 1002,8 7 0,2
22.04.2018 07:00:00 7,0 - - 29 16 57 31 SE 1003,1 10 2,2
22.04.2018 06:00:00 7,2 - - 29 16 46 25 SE 1004,7 11 0,0
22.04.2018 05:00:00 7,0 - - 31 17 - - SE 1005,8 11 0,0
22.04.2018 04:00:00 6,9 - - 26 14 - - SE 1007,3 11 0,0
22.04.2018 03:00:00 6,8 - - 18 10 - - SE 1008,8 10 0,0
22.04.2018 02:00:00 6,9 - - 21 11 - - SE 1010,1 10 0,0
22.04.2018 01:00:00 7,0 - - 22 12 - - SE 1010,9 12 0,0
22.04.2018 00:00:00 6,9 - - 21 11 - - SE 1011,7 13 0,0
21.04.2018 23:00:00 6,8 - - 18 10 - - SE 1012,3 13 0,0
21.04.2018 22:00:00 6,9 - - 18 10 - - SE 1013,1 14 0,0
21.04.2018 21:00:00 6,9 - - 16 9 - - SE 1014,1 17 0,0
21.04.2018 20:00:00 7,0 - - 18 10 - - SE 1014,6 19 0,0
21.04.2018 19:00:00 7,2 - - 18 10 - - SE 1015,5 20 0,0
21.04.2018 18:00:00 7,4 - - 16 9 - - SE 1016,1 21 0,0
21.04.2018 17:00:00 7,5 - - 18 10 - - SE 1016,6 35 0,0
21.04.2018 16:00:00 8,3 - - 22 12 - - SSE 1017,5 22 0,0
21.04.2018 15:00:00 8,6 - - 21 11 - - SSE 1018,3 27 0,0
21.04.2018 14:00:00 9,9 - - 21 11 - - SSE 1018,9 21 0,0
21.04.2018 13:00:00 8,9 - - 18 10 - - S 1019,3 17 0,0
21.04.2018 12:00:00 8,7 - - 18 10 - - SSW 1019,8 22 0,0
21.04.2018 11:00:00 8,1 - - 21 11 - - SW 1020,0 20 0,0
21.04.2018 10:00:00 8,2 7,7 6,4 18 10 - - SSW 1020,0 11 0,0
21.04.2018 09:00:00 7,5 - - 13 7 - - SSW 1019,9 8 0,0
21.04.2018 08:00:00 7,1 - - 13 7 - - W 1019,7 9 0,0
21.04.2018 07:00:00 6,9 - - 16 9 - - W 1019,5 5 0,0
21.04.2018 06:00:00 6,9 - - 16 9 - - W 1019,6 6 0,0
21.04.2018 05:00:00 6,9 - - 21 11 - - W 1019,3 6 0,0
21.04.2018 04:00:00 6,8 - - 22 12 - - W 1019,2 7 0,0
21.04.2018 03:00:00 7,0 - - 22 12 - - W 1019,3 7 0,0
21.04.2018 02:00:00 6,9 - - 22 12 - - W 1019,4 5 0,0
21.04.2018 01:00:00 6,8 - - 26 14 - - WSW 1019,2 6 0,0
21.04.2018 00:00:00 6,7 - - 22 12 - - W 1019,0 7 0,0
20.04.2018 23:00:00 6,9 - - 26 14 - - WSW 1018,8 10 0,0
20.04.2018 22:00:00 7,1 - - 31 17 - - WSW 1018,5 12 0,0
20.04.2018 21:00:00 7,2 - - 26 14 - - W 1018,2 9 0,0
20.04.2018 20:00:00 7,6 - - 28 15 - - WSW 1017,7 10 0,0
20.04.2018 19:00:00 8,1 - - 31 17 46 25 WSW 1017,5 12 0,0
20.04.2018 18:00:00 8,4 - - 29 16 - - WSW 1017,5 12 0,0
20.04.2018 17:00:00 8,6 - - 24 13 - - W 1017,4 11 0,0
20.04.2018 16:00:00 8,9 - - 24 13 - - WSW 1017,5 11 0,0
20.04.2018 15:00:00 9,4 - - 24 13 - - WSW 1017,7 12 0,0
20.04.2018 14:00:00 8,9 - - 29 16 46 25 WSW 1017,7 14 0,0
20.04.2018 13:00:00 10,5 - - 26 14 - - WSW 1017,6 18 0,0
20.04.2018 12:00:00 9,0 - - 24 13 - - WSW 1018,0 12 0,0
20.04.2018 11:00:00 10,1 - - 22 12 - - SW 1017,8 30 0,0
20.04.2018 10:00:00 8,5 7,5 6,2 16 9 - - SW 1018,1 35 0,0
20.04.2018 09:00:00 8,6 - - 13 7 - - SSW 1018,0 35 0,0
20.04.2018 08:00:00 8,8 - - 15 8 - - W 1018,4 29 0,0
20.04.2018 07:00:00 7,9 - - 16 9 - - SW 1018,6 25 0,0
20.04.2018 06:00:00 8,0 - - 15 8 - - SW 1018,6 29 0,0
20.04.2018 05:00:00 7,4 - - 9 5 - - WSW 1018,9 18 0,0
20.04.2018 04:00:00 7,8 - - 15 8 - - SW 1019,3 16 0,0
20.04.2018 03:00:00 7,9 - - 11 6 - - S 1019,9 13 0,0
20.04.2018 02:00:00 8,6 - - 16 9 - - SSE 1020,2 17 0,0
20.04.2018 01:00:00 8,5 - - 8 4 - - ESE 1020,7 15 0,0
20.04.2018 00:00:00 8,6 - - 5 3 - - SSE 1020,9 18 0,0
19.04.2018 23:00:00 8,5 - - 9 5 - - SE 1020,9 17 0,0
19.04.2018 22:00:00 9,2 - - 5 3 - - SE 1020,9 14 0,0
19.04.2018 21:00:00 8,9 - - 0 0 - - N 1021,1 19 0,0
19.04.2018 20:00:00 10,9 - - 5 3 - - WSW 1020,5 26 0,0
19.04.2018 19:00:00 10,9 - - 4 2 - - SSW 1020,5 17 0,0
19.04.2018 18:00:00 11,1 - - 4 2 - - WSW 1020,6 15 0,0
19.04.2018 17:00:00 11,2 - - 8 4 - - SSW 1020,6 18 0,0
19.04.2018 16:00:00 12,3 - - 8 4 - - SSW 1020,3 13 0,0
19.04.2018 15:00:00 10,0 - - 8 4 - - SE 1020,4 10 0,0
19.04.2018 14:00:00 10,5 - - 0 0 - - N 1020,2 12 0,0
19.04.2018 13:00:00 9,9 - - 5 3 - - SE 1020,0 13 0,0
19.04.2018 12:00:00 11,1 - - 8 4 - - SSW 1019,9 13 0,0
19.04.2018 11:00:00 10,7 - - 13 7 - - SSW 1019,6 11 0,0
19.04.2018 10:00:00 10,1 7,0 6,0 13 7 - - S 1019,0 10 0,0
19.04.2018 09:00:00 10,0 - - 11 6 - - SSW 1018,7 10 0,0
19.04.2018 08:00:00 9,8 - - 18 10 - - WSW 1018,5 9 -
19.04.2018 07:00:00 8,7 - - 22 12 - - WSW 1018,1 8 -
19.04.2018 06:00:00 8,5 - - 29 16 50 27 S 1017,1 9 -
19.04.2018 05:00:00 8,8 - - 37 20 54 29 S 1017,1 9 -
19.04.2018 04:00:00 9,4 - - 41 22 57 31 SSE 1017,4 9 -
19.04.2018 03:00:00 9,5 - - 31 17 52 28 SSE 1017,9 9 -
19.04.2018 02:00:00 9,3 - - 31 17 - - SSE 1018,5 11 0,0
19.04.2018 01:00:00 9,6 - - 41 22 57 31 SSE 1019,3 13 0,0
19.04.2018 00:00:00 9,5 - - 41 22 59 32 S 1019,4 11 0,0
18.04.2018 23:00:00 9,2 - - 35 19 52 28 S 1019,5 13 0,0
18.04.2018 22:00:00 8,4 - - 22 12 - - SSE 1019,7 13 0,0
18.04.2018 21:00:00 7,9 - - 18 10 - - SE 1020,0 10 0,0
18.04.2018 20:00:00 7,5 - - 13 7 - - ESE 1020,3 6 0,0
18.04.2018 19:00:00 8,0 - - 11 6 - - ESE 1020,7 1,5 0,0
18.04.2018 18:00:00 9,4 - - 15 8 - - SE 1020,6 12 0,0
18.04.2018 17:00:00 9,4 - - 9 5 - - SE 1020,4 11 0,0
18.04.2018 16:00:00 8,7 - - 8 4 - - SE 1020,6 13 0,0
18.04.2018 15:00:00 9,8 - - 18 10 - - SSW 1020,4 10 0,0
18.04.2018 14:00:00 10,1 - - 22 12 - - S 1020,3 11 0,0
18.04.2018 13:00:00 10,1 - - 21 11 - - S 1019,6 10 0,0
18.04.2018 12:00:00 9,9 - - 24 13 - - S 1019,1 12 0,0
18.04.2018 11:00:00 9,6 - - 22 12 - - S 1018,5 10 0,0
18.04.2018 10:00:00 9,4 6,7 5,9 21 11 - - SSW 1017,7 9 0,0
18.04.2018 09:00:00 8,9 - - 21 11 - - S 1017,1 8 0,0
18.04.2018 08:00:00 8,2 - - 16 9 - - SSW 1016,2 7 0,0
18.04.2018 07:00:00 8,0 - - 22 12 - - SSW 1015,7 8 0,0
18.04.2018 06:00:00 7,5 - - 15 8 - - S 1014,9 10 0,0
18.04.2018 05:00:00 7,6 - - 16 9 - - S 1014,4 10 0,0
18.04.2018 04:00:00 8,4 - - 15 8 - - SW 1013,6 11 0,0
18.04.2018 03:00:00 8,1 - - 16 9 - - SSW 1013,1 8 0,0
18.04.2018 02:00:00 8,0 - - 22 12 - - SSW 1012,6 9 0,0
18.04.2018 01:00:00 7,7 - - 11 6 - - SSW 1011,6 9 0,0
18.04.2018 00:00:00 7,0 - - 15 8 - - S 1010,9 9 0,0
17.04.2018 23:00:00 7,6 - - 18 10 - - S 1009,7 8 0,0
17.04.2018 22:00:00 7,7 - - 16 9 - - S 1008,7 9 0,0
17.04.2018 21:00:00 7,7 - - 26 14 - - S 1007,9 8 0,0
17.04.2018 20:00:00 8,2 - - 28 15 48 26 S 1006,8 9 0,0
17.04.2018 19:00:00 8,7 - - 29 16 54 29 SSE 1005,8 10 0,0
17.04.2018 18:00:00 8,3 - - 39 21 55 30 S 1005,3 7 0,0
17.04.2018 17:00:00 8,6 - - 35 19 52 28 SSE 1005,0 7 0,0
17.04.2018 16:00:00 8,9 - - 39 21 57 31 SSE 1004,5 6 0,0
17.04.2018 15:00:00 8,6 - - 41 22 55 30 SSE 1004,5 6 0,0
17.04.2018 14:00:00 7,9 - - 37 20 65 35 SSE 1004,5 6 0,0
17.04.2018 13:00:00 7,4 - - 42 23 61 33 SSE 1004,7 5 0,0
17.04.2018 12:00:00 7,8 - - 44 24 65 35 SSE 1004,5 7 0,0
17.04.2018 11:00:00 7,1 - - 44 24 67 36 SE 1004,7 6 0,4
17.04.2018 10:00:00 7,0 6,4 5,7 46 25 67 36 SE 1005,0 7 0,6
17.04.2018 09:00:00 7,4 - - 42 23 63 34 SE 1005,0 7 0,0
17.04.2018 08:00:00 7,5 - - 35 19 57 31 SE 1005,0 10 0,0
17.04.2018 07:00:00 7,5 - - 31 17 55 30 SE 1005,5 10 0,0
17.04.2018 06:00:00 7,5 - - 37 20 54 29 SE 1005,8 10 0,0
17.04.2018 05:00:00 7,5 - - 39 21 55 30 SE 1006,3 11 0,0
17.04.2018 04:00:00 7,3 - - 39 21 55 30 SE 1006,9 12 0,0
17.04.2018 03:00:00 7,4 - - 35 19 52 28 SE 1006,8 12 0,0
17.04.2018 02:00:00 7,5 - - 42 23 52 28 SSE 1007,6 12 0,2
17.04.2018 01:00:00 7,2 - - 35 19 - - SSE 1007,5 12 0,0
17.04.2018 00:00:00 6,8 - - 24 13 - - SE 1007,5 12 0,0

tt = temperature
tt -20cm = temperature -20cm
tt -100cm = temperature -100cm
ff = wind speed
fx = gusts
dd = wind direction
ppp = reduced air pressure
vv = visibility
rr = precipitation

Next stations